sensor_id;sensor_type;location;lat;lon;timestamp;pressure;altitude;pressure_sealevel;temperature;humidity
20656;BME280;10487;53.320;8.672;2023-04-20T00:02:11;102108.13;;;6.12;39.90
20656;BME280;10487;53.320;8.672;2023-04-20T00:05:15;102100.09;;;6.15;40.12
20656;BME280;10487;53.320;8.672;2023-04-20T00:08:17;102098.22;;;6.18;40.01
20656;BME280;10487;53.320;8.672;2023-04-20T00:11:19;102087.50;;;6.21;40.04
20656;BME280;10487;53.320;8.672;2023-04-20T00:14:21;102084.72;;;6.24;39.94
20656;BME280;10487;53.320;8.672;2023-04-20T00:17:22;102088.25;;;6.25;39.89
20656;BME280;10487;53.320;8.672;2023-04-20T00:20:24;102086.47;;;6.25;40.05
20656;BME280;10487;53.320;8.672;2023-04-20T00:23:26;102089.06;;;6.27;39.91
20656;BME280;10487;53.320;8.672;2023-04-20T00:26:27;102091.69;;;6.28;39.83
20656;BME280;10487;53.320;8.672;2023-04-20T00:29:29;102082.84;;;6.28;39.98
20656;BME280;10487;53.320;8.672;2023-04-20T00:32:31;102088.16;;;6.28;39.98
20656;BME280;10487;53.320;8.672;2023-04-20T00:35:32;102081.97;;;6.27;40.01
20656;BME280;10487;53.320;8.672;2023-04-20T00:38:34;102072.25;;;6.28;39.80
20656;BME280;10487;53.320;8.672;2023-04-20T00:41:36;102066.13;;;6.26;39.99
20656;BME280;10487;53.320;8.672;2023-04-20T00:44:37;102050.28;;;6.24;40.02
20656;BME280;10487;53.320;8.672;2023-04-20T00:47:39;102047.69;;;6.23;40.21
20656;BME280;10487;53.320;8.672;2023-04-20T00:50:41;102030.91;;;6.22;40.06
20656;BME280;10487;53.320;8.672;2023-04-20T00:53:43;102022.16;;;6.20;40.11
20656;BME280;10487;53.320;8.672;2023-04-20T00:56:45;102037.19;;;6.20;40.15
20656;BME280;10487;53.320;8.672;2023-04-20T00:59:47;102021.44;;;6.15;40.42
20656;BME280;10487;53.320;8.672;2023-04-20T01:02:48;102022.50;;;6.11;40.35
20656;BME280;10487;53.320;8.672;2023-04-20T01:05:50;102015.50;;;6.09;40.27
20656;BME280;10487;53.320;8.672;2023-04-20T01:08:52;102022.69;;;6.05;40.28
20656;BME280;10487;53.320;8.672;2023-04-20T01:11:53;102017.50;;;6.02;40.53
20656;BME280;10487;53.320;8.672;2023-04-20T01:14:55;102015.88;;;5.98;40.45
20656;BME280;10487;53.320;8.672;2023-04-20T01:17:57;102013.28;;;5.96;40.57
20656;BME280;10487;53.320;8.672;2023-04-20T01:20:58;102003.75;;;5.91;40.48
20656;BME280;10487;53.320;8.672;2023-04-20T01:24:00;102006.56;;;5.86;40.62
20656;BME280;10487;53.320;8.672;2023-04-20T01:27:02;102002.34;;;5.81;40.68
20656;BME280;10487;53.320;8.672;2023-04-20T01:30:04;101995.41;;;5.77;40.69
20656;BME280;10487;53.320;8.672;2023-04-20T01:33:06;101998.22;;;5.72;40.73
20656;BME280;10487;53.320;8.672;2023-04-20T01:36:08;101992.16;;;5.69;40.84
20656;BME280;10487;53.320;8.672;2023-04-20T01:39:11;101995.78;;;5.66;40.75
20656;BME280;10487;53.320;8.672;2023-04-20T01:42:12;101994.97;;;5.64;40.85
20656;BME280;10487;53.320;8.672;2023-04-20T01:45:14;101994.19;;;5.61;40.79
20656;BME280;10487;53.320;8.672;2023-04-20T01:48:16;101983.69;;;5.58;40.99
20656;BME280;10487;53.320;8.672;2023-04-20T01:51:17;101975.81;;;5.56;41.01
20656;BME280;10487;53.320;8.672;2023-04-20T01:54:19;101961.78;;;5.54;41.00
20656;BME280;10487;53.320;8.672;2023-04-20T01:57:20;101953.78;;;5.56;40.88
20656;BME280;10487;53.320;8.672;2023-04-20T02:00:22;101944.84;;;5.58;40.92
20656;BME280;10487;53.320;8.672;2023-04-20T02:03:24;101948.47;;;5.56;41.12
20656;BME280;10487;53.320;8.672;2023-04-20T02:06:26;101960.94;;;5.52;40.98
20656;BME280;10487;53.320;8.672;2023-04-20T02:09:27;101963.81;;;5.46;41.07
20656;BME280;10487;53.320;8.672;2023-04-20T02:12:29;101962.16;;;5.42;41.21
20656;BME280;10487;53.320;8.672;2023-04-20T02:15:31;101970.22;;;5.39;41.21
20656;BME280;10487;53.320;8.672;2023-04-20T02:18:32;101958.06;;;5.33;41.24
20656;BME280;10487;53.320;8.672;2023-04-20T02:21:34;101948.44;;;5.31;41.19
20656;BME280;10487;53.320;8.672;2023-04-20T02:24:36;101937.91;;;5.29;41.26
20656;BME280;10487;53.320;8.672;2023-04-20T02:27:37;101942.25;;;5.30;41.40
20656;BME280;10487;53.320;8.672;2023-04-20T02:30:39;101958.16;;;5.30;41.22
20656;BME280;10487;53.320;8.672;2023-04-20T02:33:41;101957.34;;;5.28;41.37
20656;BME280;10487;53.320;8.672;2023-04-20T02:36:42;101952.94;;;5.27;41.32
20656;BME280;10487;53.320;8.672;2023-04-20T02:39:44;101954.78;;;5.25;41.46
20656;BME280;10487;53.320;8.672;2023-04-20T02:42:46;101960.16;;;5.22;41.29
20656;BME280;10487;53.320;8.672;2023-04-20T02:45:48;101975.28;;;5.19;41.37
20656;BME280;10487;53.320;8.672;2023-04-20T02:48:49;101968.34;;;5.15;41.63
20656;BME280;10487;53.320;8.672;2023-04-20T02:51:51;101960.53;;;5.12;41.47
20656;BME280;10487;53.320;8.672;2023-04-20T02:54:53;101954.38;;;5.10;41.58
20656;BME280;10487;53.320;8.672;2023-04-20T02:57:54;101947.38;;;5.09;41.61
20656;BME280;10487;53.320;8.672;2023-04-20T03:00:59;101950.91;;;5.08;41.58
20656;BME280;10487;53.320;8.672;2023-04-20T03:04:01;101951.88;;;5.05;41.64
20656;BME280;10487;53.320;8.672;2023-04-20T03:07:03;101944.03;;;5.02;41.75
20656;BME280;10487;53.320;8.672;2023-04-20T03:10:05;101959.97;;;5.01;41.80
20656;BME280;10487;53.320;8.672;2023-04-20T03:13:07;101942.41;;;4.98;41.68
20656;BME280;10487;53.320;8.672;2023-04-20T03:16:09;101928.38;;;4.96;41.74
20656;BME280;10487;53.320;8.672;2023-04-20T03:19:11;101920.50;;;4.95;41.80
20656;BME280;10487;53.320;8.672;2023-04-20T03:22:12;101913.41;;;4.95;41.84
20656;BME280;10487;53.320;8.672;2023-04-20T03:25:14;101916.91;;;4.96;41.89
20656;BME280;10487;53.320;8.672;2023-04-20T03:28:16;101922.22;;;4.96;41.78
20656;BME280;10487;53.320;8.672;2023-04-20T03:31:18;101918.75;;;4.94;41.79
20656;BME280;10487;53.320;8.672;2023-04-20T03:34:19;101917.88;;;4.93;41.80
20656;BME280;10487;53.320;8.672;2023-04-20T03:37:22;101930.22;;;4.93;41.93
20656;BME280;10487;53.320;8.672;2023-04-20T03:40:23;101915.22;;;4.93;41.95
20656;BME280;10487;53.320;8.672;2023-04-20T03:43:25;101908.25;;;4.91;42.00
20656;BME280;10487;53.320;8.672;2023-04-20T03:46:27;101910.03;;;4.90;42.01
20656;BME280;10487;53.320;8.672;2023-04-20T03:49:29;101916.19;;;4.91;42.03
20656;BME280;10487;53.320;8.672;2023-04-20T03:52:31;101917.94;;;4.92;42.08
20656;BME280;10487;53.320;8.672;2023-04-20T03:55:32;101917.06;;;4.91;41.96
20656;BME280;10487;53.320;8.672;2023-04-20T03:58:34;101924.94;;;4.93;42.09
20656;BME280;10487;53.320;8.672;2023-04-20T04:01:36;101905.53;;;4.94;41.87
20656;BME280;10487;53.320;8.672;2023-04-20T04:04:39;101922.22;;;4.96;42.07
20656;BME280;10487;53.320;8.672;2023-04-20T04:07:41;101918.69;;;4.95;42.05
20656;BME280;10487;53.320;8.672;2023-04-20T04:10:43;101920.53;;;4.93;42.18
20656;BME280;10487;53.320;8.672;2023-04-20T04:13:44;101917.06;;;4.91;42.13
20656;BME280;10487;53.320;8.672;2023-04-20T04:16:46;101917.16;;;4.88;42.13
20656;BME280;10487;53.320;8.672;2023-04-20T04:19:48;101913.84;;;4.82;42.23
20656;BME280;10487;53.320;8.672;2023-04-20T04:22:49;101914.91;;;4.76;42.19
20656;BME280;10487;53.320;8.672;2023-04-20T04:25:52;101912.44;;;4.70;42.22
20656;BME280;10487;53.320;8.672;2023-04-20T04:28:54;101919.66;;;4.65;42.27
20656;BME280;10487;53.320;8.672;2023-04-20T04:31:57;101911.84;;;4.60;42.40
20656;BME280;10487;53.320;8.672;2023-04-20T04:34:59;101917.25;;;4.57;42.51
20656;BME280;10487;53.320;8.672;2023-04-20T04:38:01;101916.47;;;4.54;42.47
20656;BME280;10487;53.320;8.672;2023-04-20T04:41:03;101921.75;;;4.54;42.51
20656;BME280;10487;53.320;8.672;2023-04-20T04:44:04;101918.31;;;4.50;42.67
20656;BME280;10487;53.320;8.672;2023-04-20T04:47:06;101926.41;;;4.46;42.63
20656;BME280;10487;53.320;8.672;2023-04-20T04:50:10;101923.97;;;4.40;42.70
20656;BME280;10487;53.320;8.672;2023-04-20T04:53:12;101918.91;;;4.32;42.72
20656;BME280;10487;53.320;8.672;2023-04-20T04:56:13;101919.13;;;4.25;42.93
20656;BME280;10487;53.320;8.672;2023-04-20T04:59:15;101921.09;;;4.17;43.00
20656;BME280;10487;53.320;8.672;2023-04-20T05:02:17;101925.66;;;4.11;43.01
20656;BME280;10487;53.320;8.672;2023-04-20T05:05:19;101924.97;;;4.05;43.18
20656;BME280;10487;53.320;8.672;2023-04-20T05:08:21;101924.22;;;4.00;43.25
20656;BME280;10487;53.320;8.672;2023-04-20T05:11:24;101930.41;;;3.99;43.24
20656;BME280;10487;53.320;8.672;2023-04-20T05:14:26;101929.53;;;3.98;43.35
20656;BME280;10487;53.320;8.672;2023-04-20T05:17:27;101935.75;;;3.97;43.36
20656;BME280;10487;53.320;8.672;2023-04-20T05:20:29;101944.56;;;3.96;43.30
20656;BME280;10487;53.320;8.672;2023-04-20T05:23:31;101947.34;;;3.92;43.47
20656;BME280;10487;53.320;8.672;2023-04-20T05:26:32;101938.63;;;3.88;43.53
20656;BME280;10487;53.320;8.672;2023-04-20T05:29:34;101942.72;;;4.00;43.96
20656;BME280;10487;53.320;8.672;2023-04-20T05:32:35;101947.53;;;4.17;43.89
20656;BME280;10487;53.320;8.672;2023-04-20T05:35:37;101947.59;;;4.13;43.64
20656;BME280;10487;53.320;8.672;2023-04-20T05:38:41;101950.44;;;4.07;43.80
20656;BME280;10487;53.320;8.672;2023-04-20T05:41:43;101959.38;;;4.02;43.89
20656;BME280;10487;53.320;8.672;2023-04-20T05:44:45;101954.22;;;3.97;43.97
20656;BME280;10487;53.320;8.672;2023-04-20T05:47:56;101961.38;;;3.94;43.83
20656;BME280;10487;53.320;8.672;2023-04-20T05:50:58;101953.50;;;3.92;44.15
20656;BME280;10487;53.320;8.672;2023-04-20T05:54:01;101953.56;;;3.89;44.01
20656;BME280;10487;53.320;8.672;2023-04-20T05:57:03;101950.94;;;3.89;43.98
20656;BME280;10487;53.320;8.672;2023-04-20T06:00:07;101950.97;;;3.88;44.28
20656;BME280;10487;53.320;8.672;2023-04-20T06:03:10;101953.66;;;3.86;44.04
20656;BME280;10487;53.320;8.672;2023-04-20T06:06:15;101951.06;;;3.85;44.04
20656;BME280;10487;53.320;8.672;2023-04-20T06:09:17;101958.16;;;3.83;44.36
20656;BME280;10487;53.320;8.672;2023-04-20T06:12:19;101955.59;;;3.80;44.36
20656;BME280;10487;53.320;8.672;2023-04-20T06:15:21;101959.19;;;3.77;44.40
20656;BME280;10487;53.320;8.672;2023-04-20T06:18:22;101963.72;;;3.72;44.31
20656;BME280;10487;53.320;8.672;2023-04-20T06:21:24;101958.50;;;3.71;44.63
20656;BME280;10487;53.320;8.672;2023-04-20T06:24:27;101956.78;;;3.68;44.53
20656;BME280;10487;53.320;8.672;2023-04-20T06:27:29;101952.34;;;3.69;44.67
20656;BME280;10487;53.320;8.672;2023-04-20T06:30:34;101953.22;;;3.71;44.50
20656;BME280;10487;53.320;8.672;2023-04-20T06:33:35;101944.44;;;3.69;44.80
20656;BME280;10487;53.320;8.672;2023-04-20T06:36:41;101942.66;;;3.69;44.69
20656;BME280;10487;53.320;8.672;2023-04-20T06:39:42;101940.03;;;3.69;44.70
20656;BME280;10487;53.320;8.672;2023-04-20T06:42:44;101940.97;;;3.68;44.83
20656;BME280;10487;53.320;8.672;2023-04-20T06:45:45;101941.78;;;3.70;44.92
20656;BME280;10487;53.320;8.672;2023-04-20T06:48:47;101936.38;;;3.73;45.07
20656;BME280;10487;53.320;8.672;2023-04-20T06:51:49;101946.94;;;3.73;44.81
20656;BME280;10487;53.320;8.672;2023-04-20T06:54:50;101943.41;;;3.74;45.09
20656;BME280;10487;53.320;8.672;2023-04-20T06:57:52;101936.31;;;3.76;45.09
20656;BME280;10487;53.320;8.672;2023-04-20T07:00:54;101937.13;;;3.78;45.13
20656;BME280;10487;53.320;8.672;2023-04-20T07:03:55;101946.84;;;3.78;45.16
20656;BME280;10487;53.320;8.672;2023-04-20T07:06:57;101945.06;;;3.78;45.07
20656;BME280;10487;53.320;8.672;2023-04-20T07:09:59;101941.47;;;3.81;45.36
20656;BME280;10487;53.320;8.672;2023-04-20T07:13:00;101943.16;;;3.83;45.28
20656;BME280;10487;53.320;8.672;2023-04-20T07:16:02;101941.38;;;3.85;45.41
20656;BME280;10487;53.320;8.672;2023-04-20T07:19:04;101943.00;;;3.89;45.43
20656;BME280;10487;53.320;8.672;2023-04-20T07:22:05;101940.41;;;3.88;45.43
20656;BME280;10487;53.320;8.672;2023-04-20T07:25:08;101947.34;;;3.92;45.74
20656;BME280;10487;53.320;8.672;2023-04-20T07:28:11;101948.13;;;3.95;45.57
20656;BME280;10487;53.320;8.672;2023-04-20T07:31:12;101948.94;;;3.97;45.49
20656;BME280;10487;53.320;8.672;2023-04-20T07:34:14;101942.75;;;3.98;45.58
20656;BME280;10487;53.320;8.672;2023-04-20T07:37:16;101940.97;;;4.00;45.86
20656;BME280;10487;53.320;8.672;2023-04-20T07:40:17;101946.13;;;4.03;45.70
20656;BME280;10487;53.320;8.672;2023-04-20T07:43:19;101946.88;;;4.08;45.89
20656;BME280;10487;53.320;8.672;2023-04-20T07:46:21;101951.19;;;4.13;45.69
20656;BME280;10487;53.320;8.672;2023-04-20T07:49:24;101947.59;;;4.15;45.93
20656;BME280;10487;53.320;8.672;2023-04-20T07:52:26;101952.72;;;4.20;45.97
20656;BME280;10487;53.320;8.672;2023-04-20T07:55:27;101954.44;;;4.21;46.00
20656;BME280;10487;53.320;8.672;2023-04-20T07:58:29;101953.59;;;4.20;45.73
20656;BME280;10487;53.320;8.672;2023-04-20T08:01:31;101951.78;;;4.22;46.12
20656;BME280;10487;53.320;8.672;2023-04-20T08:04:32;101958.78;;;4.23;46.20
20656;BME280;10487;53.320;8.672;2023-04-20T08:07:34;101958.69;;;4.26;46.06
20656;BME280;10487;53.320;8.672;2023-04-20T08:10:36;101952.47;;;4.29;46.14
20656;BME280;10487;53.320;8.672;2023-04-20T08:13:40;101952.31;;;4.33;46.16
20656;BME280;10487;53.320;8.672;2023-04-20T08:16:42;101963.69;;;4.37;46.23
20656;BME280;10487;53.320;8.672;2023-04-20T08:19:43;101958.34;;;4.38;46.25
20656;BME280;10487;53.320;8.672;2023-04-20T08:22:46;101961.84;;;4.39;46.28
20656;BME280;10487;53.320;8.672;2023-04-20T08:25:49;101960.97;;;4.40;46.44
20656;BME280;10487;53.320;8.672;2023-04-20T08:28:51;101968.81;;;4.41;46.46
20656;BME280;10487;53.320;8.672;2023-04-20T08:31:52;101961.78;;;4.42;46.56
20656;BME280;10487;53.320;8.672;2023-04-20T08:34:54;101968.81;;;4.41;46.53
20656;BME280;10487;53.320;8.672;2023-04-20T08:37:56;101978.50;;;4.42;46.63
20656;BME280;10487;53.320;8.672;2023-04-20T08:40:58;101978.53;;;4.41;46.72
20656;BME280;10487;53.320;8.672;2023-04-20T08:43:59;101975.94;;;4.39;46.72
20656;BME280;10487;53.320;8.672;2023-04-20T08:47:01;101975.00;;;4.42;46.75
20656;BME280;10487;53.320;8.672;2023-04-20T08:50:04;101968.81;;;4.41;46.73
20656;BME280;10487;53.320;8.672;2023-04-20T08:53:06;101973.16;;;4.44;46.87
20656;BME280;10487;53.320;8.672;2023-04-20T08:56:10;101970.88;;;4.62;46.99
20656;BME280;10487;53.320;8.672;2023-04-20T08:59:12;101983.16;;;4.63;46.83
20656;BME280;10487;53.320;8.672;2023-04-20T09:02:14;101976.25;;;4.58;46.90
20656;BME280;10487;53.320;8.672;2023-04-20T09:05:24;101976.47;;;4.52;46.94
20656;BME280;10487;53.320;8.672;2023-04-20T09:08:39;101989.69;;;4.50;47.04
20656;BME280;10487;53.320;8.672;2023-04-20T09:11:42;101981.00;;;4.47;47.06
20656;BME280;10487;53.320;8.672;2023-04-20T09:14:47;101972.16;;;4.48;47.12
20656;BME280;10487;53.320;8.672;2023-04-20T09:17:49;101971.25;;;4.49;47.28
20656;BME280;10487;53.320;8.672;2023-04-20T09:20:51;101975.72;;;4.47;47.29
20656;BME280;10487;53.320;8.672;2023-04-20T09:24:04;101981.91;;;4.46;47.29
20656;BME280;10487;53.320;8.672;2023-04-20T09:27:16;101989.84;;;4.46;47.40
20656;BME280;10487;53.320;8.672;2023-04-20T09:30:17;101981.91;;;4.46;47.44
20656;BME280;10487;53.320;8.672;2023-04-20T09:33:26;101981.00;;;4.47;47.31
20656;BME280;10487;53.320;8.672;2023-04-20T09:36:45;102005.66;;;4.47;47.43
20656;BME280;10487;53.320;8.672;2023-04-20T09:39:47;102010.00;;;4.50;47.65
20656;BME280;10487;53.320;8.672;2023-04-20T09:42:50;102006.50;;;4.49;47.37
20656;BME280;10487;53.320;8.672;2023-04-20T09:45:53;102005.63;;;4.49;47.45
20656;BME280;10487;53.320;8.672;2023-04-20T09:48:58;102008.25;;;4.49;47.51
20656;BME280;10487;53.320;8.672;2023-04-20T09:52:01;101998.56;;;4.49;47.59
20656;BME280;10487;53.320;8.672;2023-04-20T09:55:05;101995.84;;;4.51;47.67
20656;BME280;10487;53.320;8.672;2023-04-20T09:58:09;101994.88;;;4.55;47.65
20656;BME280;10487;53.320;8.672;2023-04-20T10:01:11;101993.00;;;4.58;47.64
20656;BME280;10487;53.320;8.672;2023-04-20T10:04:13;101990.25;;;4.61;47.76
20656;BME280;10487;53.320;8.672;2023-04-20T10:07:22;101995.50;;;4.63;47.67
20656;BME280;10487;53.320;8.672;2023-04-20T10:10:24;101995.41;;;4.66;47.83
20656;BME280;10487;53.320;8.672;2023-04-20T10:13:32;101990.13;;;4.66;47.90
20656;BME280;10487;53.320;8.672;2023-04-20T10:16:34;101989.22;;;4.67;47.96
20656;BME280;10487;53.320;8.672;2023-04-20T10:22:37;101981.19;;;4.70;47.83
20656;BME280;10487;53.320;8.672;2023-04-20T10:25:39;101982.03;;;4.72;47.95
20656;BME280;10487;53.320;8.672;2023-04-20T10:28:42;101976.75;;;4.72;47.94
20656;BME280;10487;53.320;8.672;2023-04-20T10:31:45;101982.75;;;4.77;48.00
20656;BME280;10487;53.320;8.672;2023-04-20T10:34:46;101977.34;;;4.80;48.08
20656;BME280;10487;53.320;8.672;2023-04-20T10:37:49;101983.47;;;4.82;47.96
20656;BME280;10487;53.320;8.672;2023-04-20T10:40:51;101986.88;;;4.86;48.00
20656;BME280;10487;53.320;8.672;2023-04-20T10:43:53;101989.50;;;4.87;48.11
20656;BME280;10487;53.320;8.672;2023-04-20T10:46:55;101992.03;;;4.90;48.20
20656;BME280;10487;53.320;8.672;2023-04-20T10:50:13;101985.75;;;4.94;48.16
20656;BME280;10487;53.320;8.672;2023-04-20T10:53:20;101990.03;;;4.98;48.26
20656;BME280;10487;53.320;8.672;2023-04-20T10:56:22;101985.53;;;5.00;48.16
20656;BME280;10487;53.320;8.672;2023-04-20T10:59:23;101989.88;;;5.03;48.28
20656;BME280;10487;53.320;8.672;2023-04-20T11:02:25;101995.06;;;5.06;48.29
20656;BME280;10487;53.320;8.672;2023-04-20T11:05:28;101991.38;;;5.11;48.34
20656;BME280;10487;53.320;8.672;2023-04-20T11:08:38;101988.53;;;5.19;48.18
20656;BME280;10487;53.320;8.672;2023-04-20T11:11:39;101996.13;;;5.29;48.25
20656;BME280;10487;53.320;8.672;2023-04-20T11:14:55;101987.72;;;5.43;48.29
20656;BME280;10487;53.320;8.672;2023-04-20T11:18:08;101981.22;;;5.53;48.33
20656;BME280;10487;53.320;8.672;2023-04-20T11:21:10;101979.19;;;5.61;48.47
20656;BME280;10487;53.320;8.672;2023-04-20T11:24:22;101972.84;;;5.65;48.32
20656;BME280;10487;53.320;8.672;2023-04-20T11:27:24;101970.97;;;5.69;48.45
20656;BME280;10487;53.320;8.672;2023-04-20T11:30:40;101972.22;;;5.83;48.47
20656;BME280;10487;53.320;8.672;2023-04-20T11:33:42;101956.44;;;6.05;48.49
20656;BME280;10487;53.320;8.672;2023-04-20T11:36:44;101955.44;;;6.32;48.51
20656;BME280;10487;53.320;8.672;2023-04-20T11:39:46;101956.19;;;6.59;48.38
20656;BME280;10487;53.320;8.672;2023-04-20T11:42:48;101964.53;;;6.73;48.34
20656;BME280;10487;53.320;8.672;2023-04-20T11:45:49;101947.34;;;6.83;48.34
20656;BME280;10487;53.320;8.672;2023-04-20T11:48:51;101941.59;;;6.94;48.52
20656;BME280;10487;53.320;8.672;2023-04-20T11:51:53;101942.94;;;7.04;48.39
20656;BME280;10487;53.320;8.672;2023-04-20T11:54:55;101946.28;;;7.09;48.36
20656;BME280;10487;53.320;8.672;2023-04-20T11:57:56;101939.75;;;7.17;48.41
20656;BME280;10487;53.320;8.672;2023-04-20T12:00:58;101945.78;;;7.21;48.31
20656;BME280;10487;53.320;8.672;2023-04-20T12:04:00;101938.75;;;7.20;48.27
20656;BME280;10487;53.320;8.672;2023-04-20T12:07:02;101931.59;;;7.22;48.36
20656;BME280;10487;53.320;8.672;2023-04-20T12:10:06;101929.28;;;7.34;48.44
20656;BME280;10487;53.320;8.672;2023-04-20T12:13:08;101934.84;;;7.50;48.50
20656;BME280;10487;53.320;8.672;2023-04-20T12:16:11;101926.38;;;7.61;48.36
20656;BME280;10487;53.320;8.672;2023-04-20T12:19:12;101927.72;;;7.71;48.34
20656;BME280;10487;53.320;8.672;2023-04-20T12:22:14;101925.53;;;7.80;48.17
20656;BME280;10487;53.320;8.672;2023-04-20T12:25:16;101918.88;;;7.90;48.32
20656;BME280;10487;53.320;8.672;2023-04-20T12:28:17;101925.53;;;8.00;48.31
20656;BME280;10487;53.320;8.672;2023-04-20T12:31:19;101924.47;;;8.05;48.28
20656;BME280;10487;53.320;8.672;2023-04-20T12:34:21;101921.94;;;8.02;48.08
20656;BME280;10487;53.320;8.672;2023-04-20T12:37:22;101931.63;;;8.02;48.28
20656;BME280;10487;53.320;8.672;2023-04-20T12:40:24;101937.03;;;8.01;48.32
20656;BME280;10487;53.320;8.672;2023-04-20T12:43:26;101929.19;;;7.98;48.23
20656;BME280;10487;53.320;8.672;2023-04-20T12:46:29;101942.41;;;7.99;48.30
20656;BME280;10487;53.320;8.672;2023-04-20T12:49:30;101938.47;;;8.10;48.38
20656;BME280;10487;53.320;8.672;2023-04-20T12:52:34;101928.13;;;8.22;48.31
20656;BME280;10487;53.320;8.672;2023-04-20T12:55:35;101930.59;;;8.27;48.08
20656;BME280;10487;53.320;8.672;2023-04-20T12:58:37;101924.53;;;8.23;48.30
20656;BME280;10487;53.320;8.672;2023-04-20T13:01:39;101929.94;;;8.22;48.21
20656;BME280;10487;53.320;8.672;2023-04-20T13:04:40;101940.91;;;8.14;48.20
20656;BME280;10487;53.320;8.672;2023-04-20T13:07:42;101933.38;;;8.04;48.27
20656;BME280;10487;53.320;8.672;2023-04-20T13:10:44;101927.50;;;7.95;48.33
20656;BME280;10487;53.320;8.672;2023-04-20T13:13:46;101916.38;;;7.87;48.45
20656;BME280;10487;53.320;8.672;2023-04-20T13:16:47;101921.81;;;7.84;48.46
20656;BME280;10487;53.320;8.672;2023-04-20T13:19:49;101913.19;;;7.79;48.35
20656;BME280;10487;53.320;8.672;2023-04-20T13:22:52;101902.03;;;7.71;48.38
20656;BME280;10487;53.320;8.672;2023-04-20T13:25:58;101897.72;;;7.69;48.39
20656;BME280;10487;53.320;8.672;2023-04-20T13:29:02;101889.75;;;7.69;48.39
20656;BME280;10487;53.320;8.672;2023-04-20T13:32:04;101892.41;;;7.69;48.32
20656;BME280;10487;53.320;8.672;2023-04-20T13:35:06;101881.91;;;7.66;48.33
20656;BME280;10487;53.320;8.672;2023-04-20T13:38:08;101894.19;;;7.68;48.39
20656;BME280;10487;53.320;8.672;2023-04-20T13:41:09;101889.75;;;7.69;48.41
20656;BME280;10487;53.320;8.672;2023-04-20T13:44:11;101893.97;;;7.73;48.27
20656;BME280;10487;53.320;8.672;2023-04-20T13:47:17;101876.13;;;7.76;48.50
20656;BME280;10487;53.320;8.672;2023-04-20T13:50:20;101877.78;;;7.79;48.45
20656;BME280;10487;53.320;8.672;2023-04-20T13:53:21;101875.19;;;7.77;48.27
20656;BME280;10487;53.320;8.672;2023-04-20T13:56:24;101878.00;;;7.74;48.37
20656;BME280;10487;53.320;8.672;2023-04-20T13:59:26;101879.84;;;7.72;48.41
20656;BME280;10487;53.320;8.672;2023-04-20T14:02:28;101879.19;;;7.67;48.37
20656;BME280;10487;53.320;8.672;2023-04-20T14:05:30;101878.38;;;7.65;48.61
20656;BME280;10487;53.320;8.672;2023-04-20T14:08:32;101883.69;;;7.65;48.50
20656;BME280;10487;53.320;8.672;2023-04-20T14:11:34;101893.47;;;7.65;48.59
20656;BME280;10487;53.320;8.672;2023-04-20T14:14:36;101885.63;;;7.62;48.65
20656;BME280;10487;53.320;8.672;2023-04-20T14:17:38;101882.22;;;7.58;48.58
20656;BME280;10487;53.320;8.672;2023-04-20T14:20:40;101878.66;;;7.59;48.74
20656;BME280;10487;53.320;8.672;2023-04-20T14:23:43;101882.22;;;7.58;48.67
20656;BME280;10487;53.320;8.672;2023-04-20T14:26:45;101893.00;;;7.55;48.61
20656;BME280;10487;53.320;8.672;2023-04-20T14:29:47;101906.47;;;7.51;48.79
20656;BME280;10487;53.320;8.672;2023-04-20T14:32:56;101891.78;;;7.42;48.63
20656;BME280;10487;53.320;8.672;2023-04-20T14:35:59;101891.13;;;7.37;48.89
20656;BME280;10487;53.320;8.672;2023-04-20T14:39:01;101879.84;;;7.32;48.86
20656;BME280;10487;53.320;8.672;2023-04-20T14:42:04;101889.72;;;7.28;48.75
20656;BME280;10487;53.320;8.672;2023-04-20T14:45:07;101889.88;;;7.25;48.85
20656;BME280;10487;53.320;8.672;2023-04-20T14:48:11;101882.94;;;7.21;48.86
20656;BME280;10487;53.320;8.672;2023-04-20T14:51:14;101874.28;;;7.16;48.68
20656;BME280;10487;53.320;8.672;2023-04-20T14:54:17;101881.59;;;7.11;48.97
20656;BME280;10487;53.320;8.672;2023-04-20T14:57:20;101870.25;;;7.08;48.82
20656;BME280;10487;53.320;8.672;2023-04-20T15:00:23;101878.25;;;7.06;48.91
20656;BME280;10487;53.320;8.672;2023-04-20T15:03:25;101872.16;;;7.04;49.00
20656;BME280;10487;53.320;8.672;2023-04-20T15:06:27;101864.28;;;7.03;49.07
20656;BME280;10487;53.320;8.672;2023-04-20T15:09:29;101866.97;;;7.01;48.95
20656;BME280;10487;53.320;8.672;2023-04-20T15:12:30;101871.59;;;6.96;49.24
20656;BME280;10487;53.320;8.672;2023-04-20T15:15:32;101864.69;;;6.92;49.23
20656;BME280;10487;53.320;8.672;2023-04-20T15:18:50;101863.03;;;6.90;49.19
20656;BME280;10487;53.320;8.672;2023-04-20T15:21:52;101852.50;;;6.88;49.24
20656;BME280;10487;53.320;8.672;2023-04-20T15:24:54;101841.00;;;6.88;49.32
20656;BME280;10487;53.320;8.672;2023-04-20T15:27:55;101854.28;;;6.88;49.33
20656;BME280;10487;53.320;8.672;2023-04-20T15:30:57;101846.44;;;6.85;49.39
20656;BME280;10487;53.320;8.672;2023-04-20T15:33:59;101844.69;;;6.84;49.44
20656;BME280;10487;53.320;8.672;2023-04-20T15:37:00;101836.81;;;6.82;49.58
20656;BME280;10487;53.320;8.672;2023-04-20T15:40:02;101833.38;;;6.80;49.34
20656;BME280;10487;53.320;8.672;2023-04-20T15:43:05;101825.34;;;6.82;49.74
20656;BME280;10487;53.320;8.672;2023-04-20T15:46:06;101829.47;;;6.89;49.37
20656;BME280;10487;53.320;8.672;2023-04-20T15:49:08;101824.09;;;6.90;49.57
20656;BME280;10487;53.320;8.672;2023-04-20T15:52:09;101816.06;;;6.92;49.42
20656;BME280;10487;53.320;8.672;2023-04-20T15:55:11;101824.03;;;6.92;49.48
20656;BME280;10487;53.320;8.672;2023-04-20T15:58:13;101817.66;;;6.96;49.54
20656;BME280;10487;53.320;8.672;2023-04-20T16:01:15;101814.00;;;6.98;49.55
20656;BME280;10487;53.320;8.672;2023-04-20T16:04:18;101807.72;;;7.01;49.56
20656;BME280;10487;53.320;8.672;2023-04-20T16:07:20;101805.88;;;7.03;49.62
20656;BME280;10487;53.320;8.672;2023-04-20T16:10:22;101802.25;;;7.05;49.48